sensor_id;sensor_type;location;lat;lon;timestamp;P1;durP1;ratioP1;P2;durP2;ratioP2
24644;SDS011;12780;45.502;9.146;2023-09-30T00:01:59;43.50;;;21.00;;
24644;SDS011;12780;45.502;9.146;2023-09-30T00:04:25;33.97;;;20.67;;
24644;SDS011;12780;45.502;9.146;2023-09-30T00:06:52;40.13;;;19.90;;
24644;SDS011;12780;45.502;9.146;2023-09-30T00:09:18;35.10;;;20.00;;
24644;SDS011;12780;45.502;9.146;2023-09-30T00:11:44;32.67;;;20.73;;
24644;SDS011;12780;45.502;9.146;2023-09-30T00:14:10;38.55;;;20.73;;
24644;SDS011;12780;45.502;9.146;2023-09-30T00:16:36;34.25;;;21.40;;
24644;SDS011;12780;45.502;9.146;2023-09-30T00:19:02;37.97;;;21.10;;
24644;SDS011;12780;45.502;9.146;2023-09-30T00:21:29;37.30;;;20.67;;
24644;SDS011;12780;45.502;9.146;2023-09-30T00:23:55;33.40;;;20.20;;
24644;SDS011;12780;45.502;9.146;2023-09-30T00:26:21;39.83;;;23.98;;
24644;SDS011;12780;45.502;9.146;2023-09-30T00:28:47;31.38;;;21.55;;
24644;SDS011;12780;45.502;9.146;2023-09-30T00:31:13;38.42;;;21.88;;
24644;SDS011;12780;45.502;9.146;2023-09-30T00:33:39;48.20;;;23.48;;
24644;SDS011;12780;45.502;9.146;2023-09-30T00:36:06;40.35;;;23.42;;
24644;SDS011;12780;45.502;9.146;2023-09-30T00:38:32;40.40;;;23.50;;
24644;SDS011;12780;45.502;9.146;2023-09-30T00:40:58;38.58;;;22.52;;
24644;SDS011;12780;45.502;9.146;2023-09-30T00:43:24;41.72;;;23.23;;
24644;SDS011;12780;45.502;9.146;2023-09-30T00:45:56;37.45;;;22.77;;
24644;SDS011;12780;45.502;9.146;2023-09-30T00:48:25;42.50;;;22.75;;
24644;SDS011;12780;45.502;9.146;2023-09-30T00:50:51;40.22;;;22.92;;
24644;SDS011;12780;45.502;9.146;2023-09-30T00:53:18;35.08;;;22.65;;
24644;SDS011;12780;45.502;9.146;2023-09-30T00:55:44;40.80;;;21.17;;
24644;SDS011;12780;45.502;9.146;2023-09-30T00:58:10;38.55;;;21.85;;
24644;SDS011;12780;45.502;9.146;2023-09-30T01:00:37;39.83;;;22.63;;
24644;SDS011;12780;45.502;9.146;2023-09-30T01:03:03;34.78;;;21.80;;
24644;SDS011;12780;45.502;9.146;2023-09-30T01:05:30;34.75;;;21.52;;
24644;SDS011;12780;45.502;9.146;2023-09-30T01:07:56;35.13;;;20.92;;
24644;SDS011;12780;45.502;9.146;2023-09-30T01:10:22;32.85;;;21.95;;
24644;SDS011;12780;45.502;9.146;2023-09-30T01:12:48;33.63;;;21.73;;
24644;SDS011;12780;45.502;9.146;2023-09-30T01:15:14;35.47;;;22.65;;
24644;SDS011;12780;45.502;9.146;2023-09-30T01:17:40;36.70;;;22.40;;
24644;SDS011;12780;45.502;9.146;2023-09-30T01:20:06;33.05;;;20.85;;
24644;SDS011;12780;45.502;9.146;2023-09-30T01:22:33;35.88;;;22.27;;
24644;SDS011;12780;45.502;9.146;2023-09-30T01:24:59;33.70;;;20.98;;
24644;SDS011;12780;45.502;9.146;2023-09-30T01:27:25;33.80;;;22.00;;
24644;SDS011;12780;45.502;9.146;2023-09-30T01:29:51;40.75;;;21.23;;
24644;SDS011;12780;45.502;9.146;2023-09-30T01:32:17;34.58;;;21.73;;
24644;SDS011;12780;45.502;9.146;2023-09-30T01:34:43;39.40;;;21.17;;
24644;SDS011;12780;45.502;9.146;2023-09-30T01:37:10;38.97;;;22.23;;
24644;SDS011;12780;45.502;9.146;2023-09-30T01:39:36;32.50;;;20.73;;
24644;SDS011;12780;45.502;9.146;2023-09-30T01:42:02;36.45;;;20.95;;
24644;SDS011;12780;45.502;9.146;2023-09-30T01:44:28;36.80;;;21.52;;
24644;SDS011;12780;45.502;9.146;2023-09-30T01:46:54;31.55;;;20.70;;
24644;SDS011;12780;45.502;9.146;2023-09-30T01:49:20;34.55;;;21.50;;
24644;SDS011;12780;45.502;9.146;2023-09-30T01:51:49;35.17;;;20.55;;
24644;SDS011;12780;45.502;9.146;2023-09-30T01:54:15;30.83;;;20.50;;
24644;SDS011;12780;45.502;9.146;2023-09-30T01:56:41;30.08;;;20.35;;
24644;SDS011;12780;45.502;9.146;2023-09-30T01:59:07;29.10;;;20.70;;
24644;SDS011;12780;45.502;9.146;2023-09-30T02:01:33;31.52;;;20.95;;
24644;SDS011;12780;45.502;9.146;2023-09-30T02:03:59;30.38;;;20.55;;
24644;SDS011;12780;45.502;9.146;2023-09-30T02:06:25;38.83;;;20.58;;
24644;SDS011;12780;45.502;9.146;2023-09-30T02:08:51;33.88;;;20.73;;
24644;SDS011;12780;45.502;9.146;2023-09-30T02:11:17;40.78;;;22.52;;
24644;SDS011;12780;45.502;9.146;2023-09-30T02:13:43;34.60;;;21.20;;
24644;SDS011;12780;45.502;9.146;2023-09-30T02:16:13;32.92;;;20.15;;
24644;SDS011;12780;45.502;9.146;2023-09-30T02:18:39;34.65;;;20.70;;
24644;SDS011;12780;45.502;9.146;2023-09-30T02:21:09;32.53;;;21.73;;
24644;SDS011;12780;45.502;9.146;2023-09-30T02:23:35;34.90;;;20.92;;
24644;SDS011;12780;45.502;9.146;2023-09-30T02:26:02;30.80;;;21.35;;
24644;SDS011;12780;45.502;9.146;2023-09-30T02:28:28;33.55;;;21.15;;
24644;SDS011;12780;45.502;9.146;2023-09-30T02:30:57;30.73;;;20.30;;
24644;SDS011;12780;45.502;9.146;2023-09-30T02:33:23;28.27;;;19.88;;
24644;SDS011;12780;45.502;9.146;2023-09-30T02:35:51;34.47;;;20.90;;
24644;SDS011;12780;45.502;9.146;2023-09-30T02:38:17;35.75;;;21.08;;
24644;SDS011;12780;45.502;9.146;2023-09-30T02:40:45;30.67;;;21.83;;
24644;SDS011;12780;45.502;9.146;2023-09-30T02:43:13;38.63;;;22.27;;
24644;SDS011;12780;45.502;9.146;2023-09-30T02:45:39;39.63;;;22.05;;
24644;SDS011;12780;45.502;9.146;2023-09-30T02:48:05;35.75;;;22.23;;
24644;SDS011;12780;45.502;9.146;2023-09-30T02:50:31;36.40;;;21.92;;
24644;SDS011;12780;45.502;9.146;2023-09-30T02:52:57;35.13;;;22.38;;
24644;SDS011;12780;45.502;9.146;2023-09-30T02:55:23;31.83;;;21.08;;
24644;SDS011;12780;45.502;9.146;2023-09-30T02:57:49;32.50;;;20.90;;
24644;SDS011;12780;45.502;9.146;2023-09-30T03:00:15;30.77;;;20.23;;
24644;SDS011;12780;45.502;9.146;2023-09-30T03:02:48;31.40;;;20.97;;
24644;SDS011;12780;45.502;9.146;2023-09-30T03:05:14;36.15;;;21.92;;
24644;SDS011;12780;45.502;9.146;2023-09-30T03:07:40;32.22;;;20.88;;
24644;SDS011;12780;45.502;9.146;2023-09-30T03:10:06;31.27;;;20.65;;
24644;SDS011;12780;45.502;9.146;2023-09-30T03:12:34;34.75;;;20.17;;
24644;SDS011;12780;45.502;9.146;2023-09-30T03:15:00;32.80;;;20.85;;
24644;SDS011;12780;45.502;9.146;2023-09-30T03:17:29;35.20;;;21.70;;
24644;SDS011;12780;45.502;9.146;2023-09-30T03:19:55;34.25;;;21.55;;
24644;SDS011;12780;45.502;9.146;2023-09-30T03:22:22;32.92;;;21.52;;
24644;SDS011;12780;45.502;9.146;2023-09-30T03:24:48;32.80;;;20.80;;
24644;SDS011;12780;45.502;9.146;2023-09-30T03:27:14;31.77;;;21.17;;
24644;SDS011;12780;45.502;9.146;2023-09-30T03:29:41;37.15;;;20.42;;
24644;SDS011;12780;45.502;9.146;2023-09-30T03:32:07;35.35;;;20.08;;
24644;SDS011;12780;45.502;9.146;2023-09-30T03:34:34;31.55;;;20.50;;
24644;SDS011;12780;45.502;9.146;2023-09-30T03:37:01;34.97;;;20.23;;
24644;SDS011;12780;45.502;9.146;2023-09-30T03:39:27;34.25;;;20.95;;
24644;SDS011;12780;45.502;9.146;2023-09-30T03:41:54;30.65;;;20.05;;
24644;SDS011;12780;45.502;9.146;2023-09-30T03:44:21;35.25;;;20.38;;
24644;SDS011;12780;45.502;9.146;2023-09-30T03:46:51;32.63;;;20.02;;
24644;SDS011;12780;45.502;9.146;2023-09-30T03:49:17;31.30;;;20.65;;
24644;SDS011;12780;45.502;9.146;2023-09-30T03:51:44;29.88;;;19.75;;
24644;SDS011;12780;45.502;9.146;2023-09-30T03:54:10;31.08;;;20.60;;
24644;SDS011;12780;45.502;9.146;2023-09-30T03:56:36;31.15;;;19.58;;
24644;SDS011;12780;45.502;9.146;2023-09-30T03:59:06;31.10;;;20.00;;
24644;SDS011;12780;45.502;9.146;2023-09-30T04:01:34;33.58;;;19.85;;
24644;SDS011;12780;45.502;9.146;2023-09-30T04:04:00;30.80;;;18.75;;
24644;SDS011;12780;45.502;9.146;2023-09-30T04:06:26;32.97;;;20.50;;
24644;SDS011;12780;45.502;9.146;2023-09-30T04:08:54;28.38;;;18.92;;
24644;SDS011;12780;45.502;9.146;2023-09-30T04:11:20;31.35;;;18.88;;
24644;SDS011;12780;45.502;9.146;2023-09-30T04:13:46;31.70;;;17.98;;
24644;SDS011;12780;45.502;9.146;2023-09-30T04:16:12;29.25;;;18.63;;
24644;SDS011;12780;45.502;9.146;2023-09-30T04:18:38;30.10;;;18.90;;
24644;SDS011;12780;45.502;9.146;2023-09-30T04:21:06;29.10;;;18.00;;
24644;SDS011;12780;45.502;9.146;2023-09-30T04:23:32;27.05;;;18.17;;
24644;SDS011;12780;45.502;9.146;2023-09-30T04:26:01;27.73;;;18.38;;
24644;SDS011;12780;45.502;9.146;2023-09-30T04:28:27;29.08;;;19.63;;
24644;SDS011;12780;45.502;9.146;2023-09-30T04:30:53;29.73;;;18.45;;
24644;SDS011;12780;45.502;9.146;2023-09-30T04:33:19;31.42;;;18.40;;
24644;SDS011;12780;45.502;9.146;2023-09-30T04:35:49;30.98;;;18.45;;
24644;SDS011;12780;45.502;9.146;2023-09-30T04:38:15;32.97;;;19.92;;
24644;SDS011;12780;45.502;9.146;2023-09-30T04:40:41;36.70;;;18.77;;
24644;SDS011;12780;45.502;9.146;2023-09-30T04:43:09;31.73;;;18.50;;
24644;SDS011;12780;45.502;9.146;2023-09-30T04:45:36;30.98;;;17.92;;
24644;SDS011;12780;45.502;9.146;2023-09-30T04:48:02;27.52;;;17.55;;
24644;SDS011;12780;45.502;9.146;2023-09-30T04:50:29;27.10;;;18.45;;
24644;SDS011;12780;45.502;9.146;2023-09-30T04:52:55;26.13;;;18.45;;
24644;SDS011;12780;45.502;9.146;2023-09-30T04:55:22;27.63;;;17.48;;
24644;SDS011;12780;45.502;9.146;2023-09-30T04:57:49;31.90;;;17.52;;
24644;SDS011;12780;45.502;9.146;2023-09-30T05:00:15;29.65;;;18.15;;
24644;SDS011;12780;45.502;9.146;2023-09-30T05:02:43;32.08;;;18.45;;
24644;SDS011;12780;45.502;9.146;2023-09-30T05:05:10;29.25;;;18.52;;
24644;SDS011;12780;45.502;9.146;2023-09-30T05:07:36;30.45;;;17.48;;
24644;SDS011;12780;45.502;9.146;2023-09-30T05:10:02;26.55;;;17.33;;
24644;SDS011;12780;45.502;9.146;2023-09-30T05:12:35;26.45;;;18.02;;
24644;SDS011;12780;45.502;9.146;2023-09-30T05:15:01;28.13;;;18.15;;
24644;SDS011;12780;45.502;9.146;2023-09-30T05:17:28;28.90;;;17.42;;
24644;SDS011;12780;45.502;9.146;2023-09-30T05:19:56;28.98;;;17.02;;
24644;SDS011;12780;45.502;9.146;2023-09-30T05:22:23;31.27;;;18.02;;
24644;SDS011;12780;45.502;9.146;2023-09-30T05:24:53;31.23;;;16.60;;
24644;SDS011;12780;45.502;9.146;2023-09-30T05:27:19;29.52;;;17.90;;
24644;SDS011;12780;45.502;9.146;2023-09-30T05:29:45;30.02;;;17.17;;
24644;SDS011;12780;45.502;9.146;2023-09-30T05:32:12;27.75;;;17.27;;
24644;SDS011;12780;45.502;9.146;2023-09-30T05:34:39;28.88;;;18.88;;
24644;SDS011;12780;45.502;9.146;2023-09-30T05:37:05;31.38;;;18.08;;
24644;SDS011;12780;45.502;9.146;2023-09-30T05:39:31;30.52;;;17.92;;
24644;SDS011;12780;45.502;9.146;2023-09-30T05:42:00;27.60;;;17.17;;
24644;SDS011;12780;45.502;9.146;2023-09-30T05:44:27;28.48;;;17.38;;
24644;SDS011;12780;45.502;9.146;2023-09-30T05:46:54;30.15;;;19.02;;
24644;SDS011;12780;45.502;9.146;2023-09-30T05:49:20;34.13;;;19.60;;
24644;SDS011;12780;45.502;9.146;2023-09-30T05:51:46;38.55;;;18.52;;
24644;SDS011;12780;45.502;9.146;2023-09-30T05:54:12;40.58;;;18.85;;
24644;SDS011;12780;45.502;9.146;2023-09-30T05:56:38;34.40;;;18.88;;
24644;SDS011;12780;45.502;9.146;2023-09-30T05:59:08;38.08;;;17.52;;
24644;SDS011;12780;45.502;9.146;2023-09-30T06:01:34;29.33;;;18.08;;
24644;SDS011;12780;45.502;9.146;2023-09-30T06:04:01;36.72;;;18.08;;
24644;SDS011;12780;45.502;9.146;2023-09-30T06:06:27;45.92;;;18.48;;
24644;SDS011;12780;45.502;9.146;2023-09-30T06:08:55;29.55;;;17.77;;
24644;SDS011;12780;45.502;9.146;2023-09-30T06:11:23;35.83;;;20.17;;
24644;SDS011;12780;45.502;9.146;2023-09-30T06:13:55;29.35;;;18.65;;
24644;SDS011;12780;45.502;9.146;2023-09-30T06:16:24;27.02;;;18.23;;
24644;SDS011;12780;45.502;9.146;2023-09-30T06:18:51;39.78;;;19.27;;
24644;SDS011;12780;45.502;9.146;2023-09-30T06:21:17;31.52;;;17.63;;
24644;SDS011;12780;45.502;9.146;2023-09-30T06:23:46;35.60;;;18.17;;
24644;SDS011;12780;45.502;9.146;2023-09-30T06:26:12;29.05;;;19.17;;
24644;SDS011;12780;45.502;9.146;2023-09-30T06:28:38;31.25;;;18.52;;
24644;SDS011;12780;45.502;9.146;2023-09-30T06:31:07;34.58;;;18.30;;
24644;SDS011;12780;45.502;9.146;2023-09-30T06:33:34;31.10;;;18.42;;
24644;SDS011;12780;45.502;9.146;2023-09-30T06:36:01;24.17;;;16.05;;
24644;SDS011;12780;45.502;9.146;2023-09-30T06:38:27;28.80;;;16.65;;
24644;SDS011;12780;45.502;9.146;2023-09-30T06:40:53;25.05;;;16.30;;
24644;SDS011;12780;45.502;9.146;2023-09-30T06:43:19;22.80;;;15.75;;
24644;SDS011;12780;45.502;9.146;2023-09-30T06:45:45;37.30;;;17.70;;
24644;SDS011;12780;45.502;9.146;2023-09-30T06:48:12;28.58;;;15.35;;
24644;SDS011;12780;45.502;9.146;2023-09-30T06:50:47;30.52;;;16.88;;
24644;SDS011;12780;45.502;9.146;2023-09-30T06:53:17;28.17;;;16.75;;
24644;SDS011;12780;45.502;9.146;2023-09-30T06:55:43;27.80;;;16.88;;
24644;SDS011;12780;45.502;9.146;2023-09-30T06:58:10;27.67;;;16.90;;
24644;SDS011;12780;45.502;9.146;2023-09-30T07:00:36;31.85;;;17.45;;
24644;SDS011;12780;45.502;9.146;2023-09-30T07:03:02;29.23;;;16.83;;
24644;SDS011;12780;45.502;9.146;2023-09-30T07:05:28;27.70;;;17.30;;
24644;SDS011;12780;45.502;9.146;2023-09-30T07:07:55;25.95;;;16.08;;
24644;SDS011;12780;45.502;9.146;2023-09-30T07:10:20;29.15;;;16.92;;
24644;SDS011;12780;45.502;9.146;2023-09-30T07:12:47;32.65;;;18.00;;
24644;SDS011;12780;45.502;9.146;2023-09-30T07:15:13;39.78;;;16.95;;
24644;SDS011;12780;45.502;9.146;2023-09-30T07:17:39;35.42;;;17.58;;
24644;SDS011;12780;45.502;9.146;2023-09-30T07:20:06;34.40;;;17.75;;
24644;SDS011;12780;45.502;9.146;2023-09-30T07:22:32;32.35;;;17.70;;
24644;SDS011;12780;45.502;9.146;2023-09-30T07:24:58;26.30;;;17.35;;
24644;SDS011;12780;45.502;9.146;2023-09-30T07:27:25;33.33;;;17.90;;
24644;SDS011;12780;45.502;9.146;2023-09-30T07:29:51;32.00;;;18.52;;
24644;SDS011;12780;45.502;9.146;2023-09-30T07:32:17;32.13;;;19.63;;
24644;SDS011;12780;45.502;9.146;2023-09-30T07:34:43;41.42;;;20.40;;
24644;SDS011;12780;45.502;9.146;2023-09-30T07:37:09;35.83;;;19.75;;
24644;SDS011;12780;45.502;9.146;2023-09-30T07:39:35;31.55;;;19.58;;
24644;SDS011;12780;45.502;9.146;2023-09-30T07:42:02;36.78;;;19.83;;
24644;SDS011;12780;45.502;9.146;2023-09-30T07:44:28;32.47;;;19.05;;
24644;SDS011;12780;45.502;9.146;2023-09-30T07:46:54;33.22;;;19.13;;
24644;SDS011;12780;45.502;9.146;2023-09-30T07:49:20;34.90;;;19.25;;
24644;SDS011;12780;45.502;9.146;2023-09-30T07:51:46;29.55;;;18.55;;
24644;SDS011;12780;45.502;9.146;2023-09-30T07:54:12;33.15;;;19.17;;
24644;SDS011;12780;45.502;9.146;2023-09-30T07:56:38;30.48;;;18.92;;
24644;SDS011;12780;45.502;9.146;2023-09-30T07:59:04;31.60;;;18.15;;
24644;SDS011;12780;45.502;9.146;2023-09-30T08:01:33;31.92;;;18.73;;
24644;SDS011;12780;45.502;9.146;2023-09-30T08:03:59;36.10;;;19.98;;
24644;SDS011;12780;45.502;9.146;2023-09-30T08:06:26;36.05;;;19.55;;
24644;SDS011;12780;45.502;9.146;2023-09-30T08:08:52;34.03;;;18.92;;
24644;SDS011;12780;45.502;9.146;2023-09-30T08:11:20;31.98;;;19.65;;
24644;SDS011;12780;45.502;9.146;2023-09-30T08:13:46;30.88;;;19.50;;
24644;SDS011;12780;45.502;9.146;2023-09-30T08:16:12;36.78;;;20.02;;
24644;SDS011;12780;45.502;9.146;2023-09-30T08:18:38;31.55;;;19.65;;
24644;SDS011;12780;45.502;9.146;2023-09-30T08:21:08;34.45;;;19.58;;
24644;SDS011;12780;45.502;9.146;2023-09-30T08:23:35;37.90;;;19.83;;
24644;SDS011;12780;45.502;9.146;2023-09-30T08:26:01;37.13;;;20.80;;
24644;SDS011;12780;45.502;9.146;2023-09-30T08:28:28;36.05;;;19.65;;
24644;SDS011;12780;45.502;9.146;2023-09-30T08:30:54;37.28;;;20.33;;
24644;SDS011;12780;45.502;9.146;2023-09-30T08:33:24;39.35;;;20.30;;
24644;SDS011;12780;45.502;9.146;2023-09-30T08:35:51;37.78;;;19.95;;
24644;SDS011;12780;45.502;9.146;2023-09-30T08:38:20;32.00;;;20.38;;
24644;SDS011;12780;45.502;9.146;2023-09-30T08:40:46;35.17;;;20.63;;
24644;SDS011;12780;45.502;9.146;2023-09-30T08:43:13;36.78;;;21.17;;
24644;SDS011;12780;45.502;9.146;2023-09-30T08:45:40;37.33;;;20.98;;
24644;SDS011;12780;45.502;9.146;2023-09-30T08:48:09;41.42;;;21.33;;
24644;SDS011;12780;45.502;9.146;2023-09-30T08:50:37;32.53;;;21.58;;
24644;SDS011;12780;45.502;9.146;2023-09-30T08:53:05;39.00;;;20.55;;
24644;SDS011;12780;45.502;9.146;2023-09-30T08:55:32;37.80;;;19.05;;
24644;SDS011;12780;45.502;9.146;2023-09-30T08:57:59;35.58;;;18.85;;
24644;SDS011;12780;45.502;9.146;2023-09-30T09:00:25;32.90;;;20.20;;
24644;SDS011;12780;45.502;9.146;2023-09-30T09:02:51;32.97;;;18.95;;
24644;SDS011;12780;45.502;9.146;2023-09-30T09:05:17;33.03;;;19.50;;
24644;SDS011;12780;45.502;9.146;2023-09-30T09:07:43;26.58;;;16.85;;
24644;SDS011;12780;45.502;9.146;2023-09-30T09:10:10;38.50;;;20.40;;
24644;SDS011;12780;45.502;9.146;2023-09-30T09:12:38;29.25;;;19.20;;
24644;SDS011;12780;45.502;9.146;2023-09-30T09:15:05;30.67;;;19.13;;
24644;SDS011;12780;45.502;9.146;2023-09-30T09:17:41;38.42;;;19.65;;
24644;SDS011;12780;45.502;9.146;2023-09-30T09:20:07;39.60;;;18.95;;
24644;SDS011;12780;45.502;9.146;2023-09-30T09:22:38;30.15;;;19.33;;
24644;SDS011;12780;45.502;9.146;2023-09-30T09:25:05;32.47;;;19.95;;
24644;SDS011;12780;45.502;9.146;2023-09-30T09:27:33;37.88;;;19.98;;
24644;SDS011;12780;45.502;9.146;2023-09-30T09:30:20;30.50;;;19.90;;
24644;SDS011;12780;45.502;9.146;2023-09-30T09:33:04;36.88;;;21.95;;
24644;SDS011;12780;45.502;9.146;2023-09-30T09:35:33;33.22;;;20.40;;
24644;SDS011;12780;45.502;9.146;2023-09-30T09:38:01;46.03;;;22.33;;
24644;SDS011;12780;45.502;9.146;2023-09-30T09:40:31;42.13;;;22.33;;
24644;SDS011;12780;45.502;9.146;2023-09-30T09:42:58;39.28;;;23.40;;
24644;SDS011;12780;45.502;9.146;2023-09-30T09:45:25;42.42;;;23.75;;
24644;SDS011;12780;45.502;9.146;2023-09-30T09:47:52;40.50;;;25.63;;
24644;SDS011;12780;45.502;9.146;2023-09-30T09:50:19;41.60;;;25.67;;
24644;SDS011;12780;45.502;9.146;2023-09-30T09:52:47;44.40;;;25.35;;
24644;SDS011;12780;45.502;9.146;2023-09-30T09:55:15;41.00;;;26.50;;
24644;SDS011;12780;45.502;9.146;2023-09-30T09:57:42;43.78;;;26.33;;
24644;SDS011;12780;45.502;9.146;2023-09-30T10:00:11;50.15;;;25.80;;
24644;SDS011;12780;45.502;9.146;2023-09-30T10:02:39;40.33;;;25.67;;
24644;SDS011;12780;45.502;9.146;2023-09-30T10:05:06;39.88;;;25.38;;
24644;SDS011;12780;45.502;9.146;2023-09-30T10:10:28;49.13;;;25.88;;
24644;SDS011;12780;45.502;9.146;2023-09-30T10:12:54;43.67;;;27.48;;
24644;SDS011;12780;45.502;9.146;2023-09-30T10:18:02;40.40;;;26.15;;
24644;SDS011;12780;45.502;9.146;2023-09-30T10:20:29;44.47;;;27.90;;
24644;SDS011;12780;45.502;9.146;2023-09-30T10:25:40;48.47;;;26.27;;
24644;SDS011;12780;45.502;9.146;2023-09-30T10:33:53;43.90;;;26.20;;
24644;SDS011;12780;45.502;9.146;2023-09-30T10:36:29;55.50;;;29.17;;
24644;SDS011;12780;45.502;9.146;2023-09-30T10:38:56;44.08;;;26.52;;
24644;SDS011;12780;45.502;9.146;2023-09-30T10:46:54;45.03;;;26.27;;
24644;SDS011;12780;45.502;9.146;2023-09-30T10:51:56;40.78;;;26.15;;
24644;SDS011;12780;45.502;9.146;2023-09-30T10:54:25;50.67;;;28.80;;
24644;SDS011;12780;45.502;9.146;2023-09-30T10:56:52;49.20;;;29.60;;
24644;SDS011;12780;45.502;9.146;2023-09-30T10:59:25;53.25;;;29.98;;
24644;SDS011;12780;45.502;9.146;2023-09-30T11:01:51;46.30;;;28.58;;
24644;SDS011;12780;45.502;9.146;2023-09-30T11:04:18;46.22;;;28.30;;
24644;SDS011;12780;45.502;9.146;2023-09-30T11:06:45;44.25;;;26.23;;
24644;SDS011;12780;45.502;9.146;2023-09-30T11:09:15;42.38;;;26.92;;
24644;SDS011;12780;45.502;9.146;2023-09-30T11:11:52;53.40;;;31.38;;
24644;SDS011;12780;45.502;9.146;2023-09-30T11:14:23;54.55;;;31.77;;
24644;SDS011;12780;45.502;9.146;2023-09-30T11:16:50;40.13;;;25.92;;
24644;SDS011;12780;45.502;9.146;2023-09-30T11:19:16;42.65;;;26.23;;
24644;SDS011;12780;45.502;9.146;2023-09-30T11:21:46;43.80;;;25.52;;
24644;SDS011;12780;45.502;9.146;2023-09-30T11:24:13;42.63;;;26.02;;
24644;SDS011;12780;45.502;9.146;2023-09-30T11:26:39;37.58;;;23.58;;
24644;SDS011;12780;45.502;9.146;2023-09-30T11:29:09;39.40;;;24.98;;
24644;SDS011;12780;45.502;9.146;2023-09-30T11:31:39;44.38;;;23.60;;
24644;SDS011;12780;45.502;9.146;2023-09-30T11:34:05;38.83;;;21.55;;
24644;SDS011;12780;45.502;9.146;2023-09-30T11:36:34;34.75;;;21.50;;
24644;SDS011;12780;45.502;9.146;2023-09-30T11:39:00;40.13;;;22.88;;
24644;SDS011;12780;45.502;9.146;2023-09-30T11:41:36;37.97;;;20.65;;
24644;SDS011;12780;45.502;9.146;2023-09-30T11:44:12;28.85;;;18.35;;
24644;SDS011;12780;45.502;9.146;2023-09-30T11:46:47;38.90;;;19.90;;
24644;SDS011;12780;45.502;9.146;2023-09-30T11:49:16;32.72;;;18.42;;
24644;SDS011;12780;45.502;9.146;2023-09-30T11:51:49;35.75;;;20.42;;
24644;SDS011;12780;45.502;9.146;2023-09-30T11:54:16;37.55;;;22.92;;
24644;SDS011;12780;45.502;9.146;2023-09-30T11:56:42;35.55;;;21.95;;
24644;SDS011;12780;45.502;9.146;2023-09-30T11:59:08;33.70;;;21.52;;
24644;SDS011;12780;45.502;9.146;2023-09-30T12:01:38;39.35;;;21.05;;
24644;SDS011;12780;45.502;9.146;2023-09-30T12:04:04;32.92;;;20.52;;
24644;SDS011;12780;45.502;9.146;2023-09-30T12:06:30;33.80;;;21.77;;
24644;SDS011;12780;45.502;9.146;2023-09-30T12:08:56;34.05;;;21.33;;
24644;SDS011;12780;45.502;9.146;2023-09-30T12:11:22;37.85;;;22.25;;
24644;SDS011;12780;45.502;9.146;2023-09-30T12:13:49;33.55;;;20.33;;
24644;SDS011;12780;45.502;9.146;2023-09-30T12:16:16;35.47;;;18.77;;
24644;SDS011;12780;45.502;9.146;2023-09-30T12:18:42;33.17;;;19.90;;
24644;SDS011;12780;45.502;9.146;2023-09-30T12:21:12;37.78;;;20.55;;
24644;SDS011;12780;45.502;9.146;2023-09-30T12:23:38;36.17;;;20.65;;
24644;SDS011;12780;45.502;9.146;2023-09-30T12:26:04;34.83;;;19.38;;
24644;SDS011;12780;45.502;9.146;2023-09-30T12:28:33;35.90;;;20.88;;
24644;SDS011;12780;45.502;9.146;2023-09-30T12:31:00;35.45;;;20.58;;
24644;SDS011;12780;45.502;9.146;2023-09-30T12:33:30;37.90;;;20.58;;
24644;SDS011;12780;45.502;9.146;2023-09-30T12:35:59;39.15;;;22.33;;
24644;SDS011;12780;45.502;9.146;2023-09-30T12:38:27;29.75;;;19.63;;
24644;SDS011;12780;45.502;9.146;2023-09-30T12:40:53;40.03;;;22.23;;
24644;SDS011;12780;45.502;9.146;2023-09-30T12:43:20;33.90;;;20.85;;
24644;SDS011;12780;45.502;9.146;2023-09-30T12:45:46;33.50;;;20.02;;
24644;SDS011;12780;45.502;9.146;2023-09-30T12:48:13;29.65;;;18.75;;
24644;SDS011;12780;45.502;9.146;2023-09-30T12:50:39;40.58;;;22.08;;
24644;SDS011;12780;45.502;9.146;2023-09-30T12:53:05;36.20;;;20.83;;
24644;SDS011;12780;45.502;9.146;2023-09-30T12:55:31;40.97;;;21.15;;
24644;SDS011;12780;45.502;9.146;2023-09-30T12:57:58;32.60;;;20.63;;
24644;SDS011;12780;45.502;9.146;2023-09-30T13:00:25;50.67;;;19.98;;
24644;SDS011;12780;45.502;9.146;2023-09-30T13:02:51;35.90;;;18.50;;
24644;SDS011;12780;45.502;9.146;2023-09-30T13:05:18;32.53;;;18.65;;
24644;SDS011;12780;45.502;9.146;2023-09-30T13:07:45;32.88;;;19.48;;
24644;SDS011;12780;45.502;9.146;2023-09-30T13:10:11;29.23;;;16.98;;
24644;SDS011;12780;45.502;9.146;2023-09-30T13:12:38;30.35;;;17.00;;
24644;SDS011;12780;45.502;9.146;2023-09-30T13:15:07;33.20;;;17.40;;
24644;SDS011;12780;45.502;9.146;2023-09-30T13:17:33;28.45;;;17.33;;
24644;SDS011;12780;45.502;9.146;2023-09-30T13:20:00;27.60;;;16.35;;
24644;SDS011;12780;45.502;9.146;2023-09-30T13:22:30;25.52;;;15.88;;
24644;SDS011;12780;45.502;9.146;2023-09-30T13:24:57;34.08;;;16.40;;
24644;SDS011;12780;45.502;9.146;2023-09-30T13:27:23;37.13;;;16.80;;
24644;SDS011;12780;45.502;9.146;2023-09-30T13:29:49;40.85;;;17.58;;
24644;SDS011;12780;45.502;9.146;2023-09-30T13:32:15;44.40;;;19.10;;
24644;SDS011;12780;45.502;9.146;2023-09-30T13:34:43;39.65;;;18.55;;
24644;SDS011;12780;45.502;9.146;2023-09-30T13:37:09;38.72;;;20.33;;
24644;SDS011;12780;45.502;9.146;2023-09-30T13:39:36;28.40;;;18.83;;
24644;SDS011;12780;45.502;9.146;2023-09-30T13:42:03;30.83;;;18.10;;
24644;SDS011;12780;45.502;9.146;2023-09-30T13:44:29;34.80;;;19.48;;
24644;SDS011;12780;45.502;9.146;2023-09-30T13:46:55;31.70;;;17.83;;
24644;SDS011;12780;45.502;9.146;2023-09-30T13:49:21;26.70;;;17.83;;
24644;SDS011;12780;45.502;9.146;2023-09-30T13:51:47;36.08;;;19.55;;
24644;SDS011;12780;45.502;9.146;2023-09-30T13:54:13;30.10;;;18.58;;
24644;SDS011;12780;45.502;9.146;2023-09-30T13:56:40;30.83;;;17.63;;
24644;SDS011;12780;45.502;9.146;2023-09-30T13:59:06;28.20;;;16.27;;
24644;SDS011;12780;45.502;9.146;2023-09-30T14:01:32;30.75;;;17.85;;
24644;SDS011;12780;45.502;9.146;2023-09-30T14:03:58;36.17;;;17.30;;
24644;SDS011;12780;45.502;9.146;2023-09-30T14:06:24;23.23;;;15.88;;
24644;SDS011;12780;45.502;9.146;2023-09-30T14:08:51;30.67;;;18.10;;
24644;SDS011;12780;45.502;9.146;2023-09-30T14:11:18;26.40;;;15.45;;
24644;SDS011;12780;45.502;9.146;2023-09-30T14:13:44;30.27;;;14.90;;
24644;SDS011;12780;45.502;9.146;2023-09-30T14:16:10;26.42;;;15.45;;
24644;SDS011;12780;45.502;9.146;2023-09-30T14:18:36;26.00;;;15.07;;
24644;SDS011;12780;45.502;9.146;2023-09-30T14:21:04;27.17;;;16.80;;
24644;SDS011;12780;45.502;9.146;2023-09-30T14:23:30;28.10;;;15.65;;
24644;SDS011;12780;45.502;9.146;2023-09-30T14:25:56;29.00;;;15.68;;
24644;SDS011;12780;45.502;9.146;2023-09-30T14:28:23;23.80;;;16.65;;
24644;SDS011;12780;45.502;9.146;2023-09-30T14:30:49;31.92;;;17.58;;
24644;SDS011;12780;45.502;9.146;2023-09-30T14:33:15;28.50;;;17.73;;
24644;SDS011;12780;45.502;9.146;2023-09-30T14:35:41;32.88;;;17.55;;
24644;SDS011;12780;45.502;9.146;2023-09-30T14:38:11;29.60;;;17.30;;
24644;SDS011;12780;45.502;9.146;2023-09-30T14:40:37;29.85;;;17.08;;
24644;SDS011;12780;45.502;9.146;2023-09-30T14:43:05;27.30;;;17.02;;